sensor_id;sensor_type;location;lat;lon;timestamp;temperature;humidity
30467;DHT22;17258;52.560;13.046;2022-08-05T00:06:17;29.70;35.60
30467;DHT22;17258;52.560;13.046;2022-08-05T00:16:18;29.60;35.90
30467;DHT22;17258;52.560;13.046;2022-08-05T00:26:19;29.40;36.10
30467;DHT22;17258;52.560;13.046;2022-08-05T00:36:20;29.20;36.50
30467;DHT22;17258;52.560;13.046;2022-08-05T00:46:23;28.90;36.90
30467;DHT22;17258;52.560;13.046;2022-08-05T00:56:24;28.70;37.40
30467;DHT22;17258;52.560;13.046;2022-08-05T01:06:24;28.60;37.70
30467;DHT22;17258;52.560;13.046;2022-08-05T01:16:36;28.50;38.60
30467;DHT22;17258;52.560;13.046;2022-08-05T01:27:06;28.40;39.10
30467;DHT22;17258;52.560;13.046;2022-08-05T01:37:43;28.30;39.80
30467;DHT22;17258;52.560;13.046;2022-08-05T01:47:47;28.20;39.80
30467;DHT22;17258;52.560;13.046;2022-08-05T01:57:50;28.20;39.20
30467;DHT22;17258;52.560;13.046;2022-08-05T02:07:52;28.10;39.40
30467;DHT22;17258;52.560;13.046;2022-08-05T02:18:04;28.10;39.50
30467;DHT22;17258;52.560;13.046;2022-08-05T02:28:11;28.00;40.70
30467;DHT22;17258;52.560;13.046;2022-08-05T02:38:13;28.00;40.10
30467;DHT22;17258;52.560;13.046;2022-08-05T02:48:15;27.90;40.20
30467;DHT22;17258;52.560;13.046;2022-08-05T02:58:17;27.90;40.30
30467;DHT22;17258;52.560;13.046;2022-08-05T03:08:20;27.80;40.50
30467;DHT22;17258;52.560;13.046;2022-08-05T03:18:22;27.80;40.70
30467;DHT22;17258;52.560;13.046;2022-08-05T03:28:23;27.70;40.80
30467;DHT22;17258;52.560;13.046;2022-08-05T03:38:25;27.70;40.90
30467;DHT22;17258;52.560;13.046;2022-08-05T03:48:27;27.70;41.10
30467;DHT22;17258;52.560;13.046;2022-08-05T03:58:30;27.60;41.30
30467;DHT22;17258;52.560;13.046;2022-08-05T04:08:33;27.60;41.70
30467;DHT22;17258;52.560;13.046;2022-08-05T04:18:35;27.60;41.70
30467;DHT22;17258;52.560;13.046;2022-08-05T04:28:37;27.60;41.90
30467;DHT22;17258;52.560;13.046;2022-08-05T04:38:37;27.60;42.00
30467;DHT22;17258;52.560;13.046;2022-08-05T04:48:38;27.70;42.20
30467;DHT22;17258;52.560;13.046;2022-08-05T04:58:39;27.80;42.50
30467;DHT22;17258;52.560;13.046;2022-08-05T05:08:39;27.90;42.60
30467;DHT22;17258;52.560;13.046;2022-08-05T05:18:40;28.00;42.90
30467;DHT22;17258;52.560;13.046;2022-08-05T05:28:42;28.00;43.00
30467;DHT22;17258;52.560;13.046;2022-08-05T05:38:43;28.00;43.20
30467;DHT22;17258;52.560;13.046;2022-08-05T05:48:45;28.00;43.50
30467;DHT22;17258;52.560;13.046;2022-08-05T05:58:46;28.10;43.90
30467;DHT22;17258;52.560;13.046;2022-08-05T06:08:47;28.10;44.00
30467;DHT22;17258;52.560;13.046;2022-08-05T06:18:47;28.10;44.30
30467;DHT22;17258;52.560;13.046;2022-08-05T06:28:48;28.00;44.50
30467;DHT22;17258;52.560;13.046;2022-08-05T06:38:49;28.00;44.70
30467;DHT22;17258;52.560;13.046;2022-08-05T06:48:53;28.00;45.00
30467;DHT22;17258;52.560;13.046;2022-08-05T06:58:54;28.10;45.40
30467;DHT22;17258;52.560;13.046;2022-08-05T07:08:55;28.30;45.50
30467;DHT22;17258;52.560;13.046;2022-08-05T07:18:55;28.30;45.40
30467;DHT22;17258;52.560;13.046;2022-08-05T07:28:56;28.40;45.40
30467;DHT22;17258;52.560;13.046;2022-08-05T07:38:57;28.40;45.50
30467;DHT22;17258;52.560;13.046;2022-08-05T07:49:00;28.30;45.60
30467;DHT22;17258;52.560;13.046;2022-08-05T07:59:01;28.20;45.90
30467;DHT22;17258;52.560;13.046;2022-08-05T08:09:02;28.10;46.10
30467;DHT22;17258;52.560;13.046;2022-08-05T08:19:03;28.00;46.40
30467;DHT22;17258;52.560;13.046;2022-08-05T08:29:03;28.00;46.80
30467;DHT22;17258;52.560;13.046;2022-08-05T08:39:04;27.90;47.00
30467;DHT22;17258;52.560;13.046;2022-08-05T08:49:05;27.90;47.40
30467;DHT22;17258;52.560;13.046;2022-08-05T08:59:07;28.00;47.50
30467;DHT22;17258;52.560;13.046;2022-08-05T09:09:08;28.00;47.50
30467;DHT22;17258;52.560;13.046;2022-08-05T09:19:08;28.10;47.70
30467;DHT22;17258;52.560;13.046;2022-08-05T09:39:13;28.30;47.90
30467;DHT22;17258;52.560;13.046;2022-08-05T09:49:22;28.30;48.00
30467;DHT22;17258;52.560;13.046;2022-08-05T09:59:24;28.30;49.10
30467;DHT22;17258;52.560;13.046;2022-08-05T10:09:24;28.20;48.30
30467;DHT22;17258;52.560;13.046;2022-08-05T10:19:25;28.20;48.90
30467;DHT22;17258;52.560;13.046;2022-08-05T10:29:26;28.20;49.30
30467;DHT22;17258;52.560;13.046;2022-08-05T10:39:34;28.20;49.40
30467;DHT22;17258;52.560;13.046;2022-08-05T10:50:00;28.30;50.20
30467;DHT22;17258;52.560;13.046;2022-08-05T11:00:19;28.40;51.10
30467;DHT22;17258;52.560;13.046;2022-08-05T11:10:26;28.70;50.30
30467;DHT22;17258;52.560;13.046;2022-08-05T11:20:47;29.00;50.10
30467;DHT22;17258;52.560;13.046;2022-08-05T11:41:07;30.00;50.60
30467;DHT22;17258;52.560;13.046;2022-08-05T11:51:08;30.60;50.00
30467;DHT22;17258;52.560;13.046;2022-08-05T12:01:20;31.20;49.30
30467;DHT22;17258;52.560;13.046;2022-08-05T12:11:29;31.70;48.90
30467;DHT22;17258;52.560;13.046;2022-08-05T12:21:32;32.20;48.10
30467;DHT22;17258;52.560;13.046;2022-08-05T12:31:34;32.70;47.40
30467;DHT22;17258;52.560;13.046;2022-08-05T12:41:37;33.00;46.90
30467;DHT22;17258;52.560;13.046;2022-08-05T12:51:58;33.30;46.50
30467;DHT22;17258;52.560;13.046;2022-08-05T13:02:07;33.40;45.80
30467;DHT22;17258;52.560;13.046;2022-08-05T13:12:12;33.50;45.70
30467;DHT22;17258;52.560;13.046;2022-08-05T13:22:13;33.60;45.50
30467;DHT22;17258;52.560;13.046;2022-08-05T13:32:14;33.60;45.00
30467;DHT22;17258;52.560;13.046;2022-08-05T13:42:15;33.60;45.10
30467;DHT22;17258;52.560;13.046;2022-08-05T13:52:21;33.60;44.50
30467;DHT22;17258;52.560;13.046;2022-08-05T14:02:23;33.50;44.40
30467;DHT22;17258;52.560;13.046;2022-08-05T14:12:23;33.00;44.80
30467;DHT22;17258;52.560;13.046;2022-08-05T14:22:24;33.10;44.50
30467;DHT22;17258;52.560;13.046;2022-08-05T14:32:25;33.00;44.50
30467;DHT22;17258;52.560;13.046;2022-08-05T14:42:25;32.80;44.20
30467;DHT22;17258;52.560;13.046;2022-08-05T14:52:26;32.60;44.10
30467;DHT22;17258;52.560;13.046;2022-08-05T15:02:27;32.30;44.30
30467;DHT22;17258;52.560;13.046;2022-08-05T15:12:27;32.00;44.30
30467;DHT22;17258;52.560;13.046;2022-08-05T15:22:28;31.70;44.30
30467;DHT22;17258;52.560;13.046;2022-08-05T15:32:28;31.30;44.30
30467;DHT22;17258;52.560;13.046;2022-08-05T15:42:29;30.90;44.50
30467;DHT22;17258;52.560;13.046;2022-08-05T15:52:30;30.50;44.70
30467;DHT22;17258;52.560;13.046;2022-08-05T16:02:32;30.20;45.10
30467;DHT22;17258;52.560;13.046;2022-08-05T16:12:32;30.00;45.60
30467;DHT22;17258;52.560;13.046;2022-08-05T16:22:33;29.80;45.60
30467;DHT22;17258;52.560;13.046;2022-08-05T16:32:34;29.40;45.50
30467;DHT22;17258;52.560;13.046;2022-08-05T16:42:35;29.10;46.10
30467;DHT22;17258;52.560;13.046;2022-08-05T16:52:35;28.80;45.50
30467;DHT22;17258;52.560;13.046;2022-08-05T17:02:36;28.40;45.40
30467;DHT22;17258;52.560;13.046;2022-08-05T17:12:36;27.90;45.30
30467;DHT22;17258;52.560;13.046;2022-08-05T17:22:37;27.40;45.60
30467;DHT22;17258;52.560;13.046;2022-08-05T17:32:38;27.00;46.00
30467;DHT22;17258;52.560;13.046;2022-08-05T17:42:41;26.50;46.60
30467;DHT22;17258;52.560;13.046;2022-08-05T17:52:42;26.20;47.10
30467;DHT22;17258;52.560;13.046;2022-08-05T18:02:43;26.00;47.20
30467;DHT22;17258;52.560;13.046;2022-08-05T18:12:46;25.70;47.40
30467;DHT22;17258;52.560;13.046;2022-08-05T18:22:47;25.50;47.70
30467;DHT22;17258;52.560;13.046;2022-08-05T18:32:47;25.30;47.80
30467;DHT22;17258;52.560;13.046;2022-08-05T18:42:48;25.10;47.70
30467;DHT22;17258;52.560;13.046;2022-08-05T18:52:49;24.90;47.50
30467;DHT22;17258;52.560;13.046;2022-08-05T19:02:50;24.60;47.30
30467;DHT22;17258;52.560;13.046;2022-08-05T19:12:50;24.40;47.70
30467;DHT22;17258;52.560;13.046;2022-08-05T19:22:51;24.20;47.80
30467;DHT22;17258;52.560;13.046;2022-08-05T19:32:52;24.00;47.90
30467;DHT22;17258;52.560;13.046;2022-08-05T19:42:52;23.80;47.80
30467;DHT22;17258;52.560;13.046;2022-08-05T19:52:53;23.60;48.00
30467;DHT22;17258;52.560;13.046;2022-08-05T20:02:54;23.50;48.20
30467;DHT22;17258;52.560;13.046;2022-08-05T20:12:56;23.30;48.30
30467;DHT22;17258;52.560;13.046;2022-08-05T20:22:57;23.20;48.50
30467;DHT22;17258;52.560;13.046;2022-08-05T20:32:57;23.10;48.70
30467;DHT22;17258;52.560;13.046;2022-08-05T20:42:58;23.00;48.80
30467;DHT22;17258;52.560;13.046;2022-08-05T20:52:59;22.90;49.00
30467;DHT22;17258;52.560;13.046;2022-08-05T21:03:00;22.90;49.10
30467;DHT22;17258;52.560;13.046;2022-08-05T21:13:03;22.80;49.30
30467;DHT22;17258;52.560;13.046;2022-08-05T21:23:04;22.80;49.50
30467;DHT22;17258;52.560;13.046;2022-08-05T21:33:07;22.70;49.50
30467;DHT22;17258;52.560;13.046;2022-08-05T21:43:08;22.70;49.70
30467;DHT22;17258;52.560;13.046;2022-08-05T21:53:09;22.60;49.90
30467;DHT22;17258;52.560;13.046;2022-08-05T22:03:09;22.70;50.00
30467;DHT22;17258;52.560;13.046;2022-08-05T22:13:14;22.60;50.00
30467;DHT22;17258;52.560;13.046;2022-08-05T22:23:15;22.50;50.10
30467;DHT22;17258;52.560;13.046;2022-08-05T22:33:34;22.50;50.00
30467;DHT22;17258;52.560;13.046;2022-08-05T22:43:35;22.30;49.70
30467;DHT22;17258;52.560;13.046;2022-08-05T22:53:35;22.10;49.70
30467;DHT22;17258;52.560;13.046;2022-08-05T23:03:36;22.00;49.60
30467;DHT22;17258;52.560;13.046;2022-08-05T23:13:37;21.80;49.50
30467;DHT22;17258;52.560;13.046;2022-08-05T23:23:37;21.60;49.50
30467;DHT22;17258;52.560;13.046;2022-08-05T23:33:38;21.50;49.40
30467;DHT22;17258;52.560;13.046;2022-08-05T23:43:39;21.30;49.40
30467;DHT22;17258;52.560;13.046;2022-08-05T23:53:40;21.10;49.40
